createdAt,value
2022-12-17T00:01:18.237Z,84.17
2022-12-17T00:02:38.970Z,74.55
2022-12-17T00:04:00.266Z,61.13
2022-12-17T00:06:41.759Z,65.78
2022-12-17T00:08:02.303Z,70.13
2022-12-17T00:09:24.433Z,60.33
2022-12-17T00:10:45.233Z,64.43
2022-12-17T00:12:05.996Z,61.35
2022-12-17T00:13:26.547Z,62.42
2022-12-17T00:14:47.330Z,63.40
2022-12-17T00:16:08.476Z,62.83
2022-12-17T00:17:30.199Z,59.58
2022-12-17T00:18:51.184Z,57.45
2022-12-17T00:20:13.211Z,62.35
2022-12-17T00:21:34.123Z,58.55
2022-12-17T00:22:59.048Z,57.67
2022-12-17T00:24:19.645Z,63.30
2022-12-17T00:25:43.487Z,62.90
2022-12-17T00:27:05.316Z,59.58
2022-12-17T00:28:26.076Z,62.80
2022-12-17T00:29:46.771Z,66.90
2022-12-17T00:31:07.519Z,71.80
2022-12-17T00:32:28.135Z,56.07
2022-12-17T00:33:48.578Z,61.63
2022-12-17T00:35:09.459Z,66.65
2022-12-17T00:36:30.661Z,63.83
2022-12-17T00:37:51.136Z,62.58
2022-12-17T00:39:12.600Z,58.88
2022-12-17T00:40:32.996Z,61.85
2022-12-17T00:41:57.591Z,62.20
2022-12-17T00:43:18.079Z,61.97
2022-12-17T00:44:38.546Z,61.77
2022-12-17T00:46:00.041Z,58.92
2022-12-17T00:47:20.782Z,67.35
2022-12-17T00:48:41.580Z,63.55
2022-12-17T00:50:01.993Z,60.90
2022-12-17T00:51:22.814Z,64.13
2022-12-17T00:52:43.342Z,64.05
2022-12-17T00:54:04.268Z,64.32
2022-12-17T00:55:25.068Z,62.85
2022-12-17T00:56:45.500Z,62.55
2022-12-17T00:58:07.719Z,61.90
2022-12-17T00:59:28.100Z,66.88
2022-12-17T01:00:48.879Z,61.85
2022-12-17T01:02:09.634Z,66.05
2022-12-17T01:03:30.233Z,60.50
2022-12-17T01:04:52.196Z,75.25
2022-12-17T01:06:12.655Z,68.07
2022-12-17T01:07:34.255Z,67.65
2022-12-17T01:08:54.987Z,71.05
2022-12-17T01:10:17.310Z,74.55
2022-12-17T01:11:38.152Z,64.55
2022-12-17T01:12:58.879Z,75.50
2022-12-17T01:14:21.085Z,64.68
2022-12-17T01:15:41.791Z,67.18
2022-12-17T01:17:02.514Z,73.32
2022-12-17T01:18:23.216Z,64.30
2022-12-17T01:19:44.357Z,68.00
2022-12-17T01:21:05.236Z,65.55
2022-12-17T01:22:26.034Z,69.22
2022-12-17T01:23:46.807Z,73.57
2022-12-17T01:25:07.660Z,65.00
2022-12-17T01:26:28.047Z,70.82
2022-12-17T01:27:48.838Z,69.53
2022-12-17T01:29:09.667Z,71.40
2022-12-17T01:30:31.878Z,64.65
2022-12-17T01:31:52.802Z,63.95
2022-12-17T01:33:13.706Z,66.80
2022-12-17T01:34:34.205Z,72.35
2022-12-17T01:35:55.105Z,78.47
2022-12-17T01:37:17.227Z,74.70
2022-12-17T01:38:37.971Z,72.63
2022-12-17T01:39:58.881Z,60.45
2022-12-17T01:41:20.052Z,68.60
2022-12-17T01:42:42.699Z,78.63
2022-12-17T01:44:36.657Z,81.93
2022-12-17T01:45:58.904Z,67.25
2022-12-17T01:47:19.443Z,72.88
2022-12-17T01:48:42.897Z,79.82
2022-12-17T01:50:03.861Z,79.22
2022-12-17T01:51:24.916Z,67.47
2022-12-17T01:54:06.024Z,75.57
2022-12-17T01:55:26.740Z,73.65
2022-12-17T01:56:47.534Z,72.80
2022-12-17T01:58:07.916Z,82.03
2022-12-17T01:59:36.638Z,75.40
2022-12-17T02:00:58.710Z,74.13
2022-12-17T02:02:19.229Z,77.70
2022-12-17T02:03:39.887Z,76.47
2022-12-17T02:05:00.627Z,84.43
2022-12-17T02:06:25.727Z,74.85
2022-12-17T02:07:55.034Z,99.72
2022-12-17T02:09:20.629Z,92.10
2022-12-17T02:10:46.011Z,79.32
2022-12-17T02:12:12.096Z,83.05
2022-12-17T02:13:37.423Z,105.22
2022-12-17T02:15:01.374Z,117.72
2022-12-17T02:16:27.271Z,83.03
2022-12-17T02:17:51.894Z,87.40
2022-12-17T02:19:22.646Z,76.45
2022-12-17T02:20:46.035Z,112.57
2022-12-17T02:22:20.458Z,79.32
2022-12-17T02:23:48.236Z,90.63
2022-12-17T02:25:13.191Z,92.93
2022-12-17T02:26:39.088Z,100.10
2022-12-17T02:28:00.877Z,87.88
2022-12-17T02:29:22.935Z,92.10
2022-12-17T02:30:43.606Z,87.95
2022-12-17T02:32:05.617Z,84.97
2022-12-17T02:33:26.456Z,89.93
2022-12-17T02:34:47.758Z,88.80
2022-12-17T02:36:08.479Z,95.43
2022-12-17T02:37:29.057Z,113.13
2022-12-17T02:38:51.712Z,95.93
2022-12-17T02:40:12.940Z,96.43
2022-12-17T02:41:38.718Z,84.97
2022-12-17T02:42:59.234Z,78.25
2022-12-17T02:44:21.986Z,90.32
2022-12-17T02:45:42.262Z,79.43
2022-12-17T02:47:05.521Z,76.35
2022-12-17T02:48:26.083Z,70.78
2022-12-17T02:49:46.766Z,73.10
2022-12-17T02:51:07.556Z,77.60
2022-12-17T02:52:33.294Z,77.55
2022-12-17T02:53:55.180Z,81.45
2022-12-17T02:56:38.204Z,85.60
2022-12-17T02:57:58.705Z,75.55
2022-12-17T02:59:19.423Z,77.22
2022-12-17T03:00:39.947Z,72.88
2022-12-17T03:02:00.522Z,73.28
2022-12-17T03:03:21.153Z,71.93
2022-12-17T03:04:41.626Z,81.27
2022-12-17T03:06:02.111Z,87.05
2022-12-17T03:07:22.722Z,78.47
2022-12-17T03:08:43.282Z,82.40
2022-12-17T03:10:04.861Z,74.03
2022-12-17T03:12:49.396Z,81.72
2022-12-17T03:14:10.171Z,72.18
2022-12-17T03:15:30.550Z,74.55
2022-12-17T03:16:51.352Z,77.70
2022-12-17T03:18:12.087Z,78.28
2022-12-17T03:19:32.598Z,77.30
2022-12-17T03:20:53.453Z,81.70
2022-12-17T03:22:14.184Z,78.88
2022-12-17T03:23:35.479Z,72.03
2022-12-17T03:24:56.149Z,74.22
2022-12-17T03:26:16.924Z,73.30
2022-12-17T03:27:37.916Z,71.07
2022-12-17T03:31:41.129Z,77.45
2022-12-17T03:33:01.451Z,74.57
2022-12-17T03:34:21.802Z,86.50
2022-12-17T03:35:42.184Z,76.30
2022-12-17T03:37:02.934Z,74.22
2022-12-17T03:38:23.447Z,77.87
2022-12-17T03:39:44.122Z,83.57
2022-12-17T03:41:05.528Z,72.65
2022-12-17T03:42:26.249Z,88.28
2022-12-17T03:43:46.803Z,79.95
2022-12-17T03:45:10.051Z,79.82
2022-12-17T03:46:31.129Z,91.07
2022-12-17T03:47:51.876Z,81.32
2022-12-17T03:49:12.930Z,87.40
2022-12-17T03:50:33.661Z,101.30
2022-12-17T03:51:54.454Z,83.03
2022-12-17T03:53:15.122Z,88.45
2022-12-17T03:54:35.870Z,99.10
2022-12-17T03:55:56.212Z,97.68
2022-12-17T03:57:16.926Z,110.93
2022-12-17T03:58:37.662Z,95.90
2022-12-17T03:59:58.261Z,115.95
2022-12-17T04:01:20.612Z,121.85
2022-12-17T04:02:42.120Z,127.32
2022-12-17T04:04:02.791Z,134.45
2022-12-17T04:05:23.815Z,132.05
2022-12-17T04:06:44.624Z,144.55
2022-12-17T04:08:05.412Z,128.98
2022-12-17T04:09:26.245Z,144.15
2022-12-17T04:10:46.762Z,144.27
2022-12-17T04:12:07.523Z,167.52
2022-12-17T04:13:27.995Z,134.43
2022-12-17T04:14:48.658Z,166.52
2022-12-17T04:16:09.482Z,148.85
2022-12-17T04:17:31.437Z,154.27
2022-12-17T04:18:52.156Z,160.73
2022-12-17T04:20:12.623Z,169.40
2022-12-17T04:21:33.249Z,145.07
2022-12-17T04:22:53.822Z,155.95
2022-12-17T04:24:14.571Z,182.13
2022-12-17T04:25:35.077Z,143.37
2022-12-17T04:26:56.591Z,157.05
2022-12-17T04:28:17.249Z,173.63
2022-12-17T04:29:37.762Z,167.55
2022-12-17T04:30:58.584Z,196.30
2022-12-17T04:32:19.207Z,167.05
2022-12-17T04:33:41.221Z,167.57
2022-12-17T04:35:01.697Z,183.57
2022-12-17T04:36:22.432Z,178.73
2022-12-17T04:37:42.755Z,175.50
2022-12-17T04:39:03.611Z,180.80
2022-12-17T04:40:24.334Z,164.07
2022-12-17T04:41:45.008Z,167.02
2022-12-17T04:43:06.649Z,185.48
2022-12-17T04:44:27.217Z,173.07
2022-12-17T04:45:49.744Z,174.27
2022-12-17T04:47:10.190Z,175.60
2022-12-17T04:48:30.602Z,170.05
2022-12-17T04:49:52.307Z,177.43
2022-12-17T04:51:12.890Z,169.25
2022-12-17T04:52:33.603Z,168.38
2022-12-17T04:53:54.194Z,182.57
2022-12-17T04:55:14.937Z,167.30
2022-12-17T04:56:35.514Z,177.60
2022-12-17T04:58:02.284Z,160.90
2022-12-17T04:59:22.891Z,155.32
2022-12-17T05:00:44.072Z,174.98
2022-12-17T05:02:04.719Z,150.23
2022-12-17T05:03:25.470Z,170.88
2022-12-17T05:04:46.201Z,150.73
2022-12-17T05:06:09.206Z,171.60
2022-12-17T05:07:29.751Z,182.38
2022-12-17T05:08:50.006Z,164.20
2022-12-17T05:10:10.454Z,165.52
2022-12-17T05:11:31.369Z,176.98
2022-12-17T05:12:56.984Z,187.10
2022-12-17T05:14:17.779Z,160.98
2022-12-17T05:15:38.274Z,189.10
2022-12-17T05:16:59.122Z,165.32
2022-12-17T05:18:19.995Z,176.00
2022-12-17T05:19:40.566Z,189.80
2022-12-17T05:21:00.938Z,181.53
2022-12-17T05:22:23.210Z,167.45
2022-12-17T05:23:43.670Z,189.10
2022-12-17T05:25:04.669Z,189.95
2022-12-17T05:27:46.823Z,181.88
2022-12-17T05:29:12.471Z,190.15
2022-12-17T05:30:36.233Z,172.50
2022-12-17T05:31:57.001Z,207.85
2022-12-17T05:33:17.654Z,189.07
2022-12-17T05:34:38.692Z,174.23
2022-12-17T05:36:00.096Z,198.13
2022-12-17T05:37:21.835Z,183.02
2022-12-17T05:38:42.654Z,176.48
2022-12-17T05:40:09.165Z,176.98
2022-12-17T05:41:33.856Z,171.05
2022-12-17T05:42:55.635Z,191.00
2022-12-17T05:44:15.969Z,161.55
2022-12-17T05:45:38.412Z,172.23
2022-12-17T05:46:59.057Z,179.68
2022-12-17T05:48:19.819Z,177.15
2022-12-17T05:49:42.334Z,160.82
2022-12-17T05:51:02.744Z,174.57
2022-12-17T05:52:24.616Z,175.10
2022-12-17T05:53:45.294Z,185.82
2022-12-17T05:55:06.825Z,174.30
2022-12-17T05:56:27.323Z,159.00
2022-12-17T05:57:53.065Z,183.07
2022-12-17T05:59:16.883Z,179.57
2022-12-17T06:00:37.699Z,169.25
2022-12-17T06:01:58.345Z,181.05
2022-12-17T06:03:19.147Z,162.48
2022-12-17T06:04:39.565Z,176.93
2022-12-17T06:06:00.190Z,183.90
2022-12-17T06:07:21.507Z,188.48
2022-12-17T06:08:43.540Z,171.15
2022-12-17T06:10:04.667Z,180.65
2022-12-17T06:11:25.690Z,178.23
2022-12-17T06:12:55.282Z,182.73
2022-12-17T06:14:16.872Z,166.90
2022-12-17T06:15:37.510Z,164.02
2022-12-17T06:16:58.127Z,170.27
2022-12-17T06:18:18.937Z,186.57
2022-12-17T06:19:39.372Z,168.80
2022-12-17T06:20:59.873Z,171.60
2022-12-17T06:22:20.301Z,167.98
2022-12-17T06:23:40.976Z,167.82
2022-12-17T06:25:03.403Z,160.02
2022-12-17T06:26:23.834Z,176.75
2022-12-17T06:27:44.432Z,169.00
2022-12-17T06:29:05.003Z,162.23
2022-12-17T06:30:25.574Z,184.88
2022-12-17T06:31:46.238Z,162.00
2022-12-17T06:33:08.906Z,159.07
2022-12-17T06:34:29.702Z,150.13
2022-12-17T06:35:51.734Z,161.63
2022-12-17T06:37:12.537Z,171.23
2022-12-17T06:38:33.189Z,160.15
2022-12-17T06:39:53.841Z,152.85
2022-12-17T06:41:15.613Z,170.80
2022-12-17T06:42:36.494Z,150.38
2022-12-17T06:43:57.983Z,166.20
2022-12-17T06:45:22.202Z,159.07
2022-12-17T06:46:42.948Z,136.45
2022-12-17T06:48:04.998Z,140.20
2022-12-17T06:49:25.552Z,139.80
2022-12-17T06:50:46.584Z,138.15
2022-12-17T06:52:07.401Z,152.45
2022-12-17T06:53:27.890Z,134.90
2022-12-17T06:54:48.780Z,155.82
2022-12-17T06:56:09.574Z,140.90
2022-12-17T06:57:33.490Z,136.43
2022-12-17T06:58:57.196Z,128.93
2022-12-17T07:00:18.114Z,133.50
2022-12-17T07:01:38.545Z,140.45
2022-12-17T07:02:59.418Z,143.75
2022-12-17T07:04:21.397Z,127.45
2022-12-17T07:05:42.442Z,134.30
2022-12-17T07:07:02.936Z,122.45
2022-12-17T07:08:23.421Z,122.70
2022-12-17T07:09:44.111Z,135.90
2022-12-17T07:11:04.526Z,125.00
2022-12-17T07:12:25.270Z,136.32
2022-12-17T07:13:47.563Z,133.35
2022-12-17T07:15:09.072Z,144.60
2022-12-17T07:16:29.595Z,154.80
2022-12-17T07:17:56.468Z,140.55
2022-12-17T07:19:16.930Z,128.63
2022-12-17T07:20:37.590Z,128.35
2022-12-17T07:21:57.969Z,129.63
2022-12-17T07:23:18.516Z,142.30
2022-12-17T07:24:39.116Z,140.05
2022-12-17T07:25:59.631Z,136.68
2022-12-17T07:27:23.396Z,150.10
2022-12-17T07:28:44.210Z,132.88
2022-12-17T07:30:07.446Z,133.48
2022-12-17T07:31:28.156Z,142.48
2022-12-17T07:32:58.357Z,151.82
2022-12-17T07:34:19.207Z,139.52
2022-12-17T07:35:39.962Z,153.57
2022-12-17T07:37:00.853Z,137.55
2022-12-17T07:38:23.977Z,143.18
2022-12-17T07:39:50.059Z,133.00
2022-12-17T07:41:10.524Z,132.63
2022-12-17T07:42:30.972Z,131.95
2022-12-17T07:43:53.454Z,154.53
2022-12-17T07:45:15.859Z,144.05
2022-12-17T07:46:36.203Z,136.75
2022-12-17T07:47:57.080Z,145.00
2022-12-17T07:49:21.309Z,151.95
2022-12-17T07:50:48.741Z,149.85
2022-12-17T07:52:08.907Z,153.98
2022-12-17T07:53:29.547Z,139.27
2022-12-17T07:54:50.540Z,129.07
2022-12-17T07:56:11.404Z,143.43
2022-12-17T07:57:32.229Z,128.40
2022-12-17T07:58:52.838Z,133.00
2022-12-17T08:00:15.777Z,115.57
2022-12-17T08:01:36.373Z,115.55
2022-12-17T08:02:58.340Z,136.85
2022-12-17T08:04:19.255Z,123.70
2022-12-17T08:05:39.935Z,137.07
2022-12-17T08:07:05.490Z,122.78
2022-12-17T08:08:29.427Z,114.15
2022-12-17T08:09:49.912Z,138.38
2022-12-17T08:11:10.590Z,122.28
2022-12-17T08:12:31.115Z,124.55
2022-12-17T08:13:51.920Z,141.20
2022-12-17T08:15:12.679Z,121.82
2022-12-17T08:16:34.843Z,108.50
2022-12-17T08:18:00.164Z,127.30
2022-12-17T08:19:20.573Z,110.88
2022-12-17T08:20:41.366Z,116.30
2022-12-17T08:22:02.012Z,117.00
2022-12-17T08:23:22.365Z,112.63
2022-12-17T08:24:42.973Z,123.20
2022-12-17T08:26:03.758Z,115.22
2022-12-17T08:27:24.734Z,116.60
2022-12-17T08:28:52.645Z,117.18
2022-12-17T08:30:13.372Z,113.97
2022-12-17T08:31:35.152Z,111.03
2022-12-17T08:32:55.531Z,113.35
2022-12-17T08:34:16.367Z,117.85
2022-12-17T08:35:36.970Z,116.95
2022-12-17T08:36:57.370Z,127.10
2022-12-17T08:38:17.967Z,118.35
2022-12-17T08:39:38.698Z,113.60
2022-12-17T08:41:00.165Z,118.53
2022-12-17T08:42:20.682Z,114.20
2022-12-17T08:43:41.322Z,114.35
2022-12-17T08:45:01.815Z,116.38
2022-12-17T08:46:22.495Z,113.68
2022-12-17T08:47:44.958Z,100.53
2022-12-17T08:49:05.620Z,118.70
2022-12-17T08:50:26.324Z,109.35
2022-12-17T08:51:46.525Z,110.00
2022-12-17T08:53:07.058Z,121.25
2022-12-17T08:54:27.539Z,121.07
2022-12-17T08:55:48.579Z,112.45
2022-12-17T08:57:09.001Z,113.95
2022-12-17T08:58:29.596Z,113.88
2022-12-17T08:59:51.277Z,115.20
2022-12-17T09:02:32.036Z,118.30
2022-12-17T09:03:53.977Z,108.40
2022-12-17T09:05:14.618Z,115.47
2022-12-17T09:06:39.112Z,111.15
2022-12-17T09:08:00.343Z,117.22
2022-12-17T09:09:20.918Z,121.13
2022-12-17T09:10:42.079Z,114.18
2022-12-17T09:12:02.810Z,111.15
2022-12-17T09:13:23.513Z,109.95
2022-12-17T09:14:44.178Z,108.30
2022-12-17T09:16:05.621Z,106.68
2022-12-17T09:17:26.058Z,109.85
2022-12-17T09:18:46.369Z,106.10
2022-12-17T09:20:09.299Z,106.93
2022-12-17T09:21:30.256Z,115.03
2022-12-17T09:22:51.057Z,116.10
2022-12-17T09:24:11.601Z,114.63
2022-12-17T09:25:32.181Z,108.05
2022-12-17T09:26:53.093Z,113.05
2022-12-17T09:28:13.627Z,116.33
2022-12-17T09:29:34.237Z,110.63
2022-12-17T09:30:58.905Z,125.25
2022-12-17T09:32:19.455Z,113.50
2022-12-17T09:33:40.433Z,108.95
2022-12-17T09:35:01.144Z,106.32
2022-12-17T09:36:23.057Z,123.97
2022-12-17T09:37:43.484Z,113.00
2022-12-17T09:39:04.345Z,117.80
2022-12-17T09:40:25.215Z,109.20
2022-12-17T09:41:53.641Z,118.88
2022-12-17T09:43:24.022Z,109.70
2022-12-17T09:44:48.923Z,115.43
2022-12-17T09:46:14.885Z,110.75
2022-12-17T09:47:43.717Z,110.75
2022-12-17T09:49:06.298Z,116.50
2022-12-17T09:50:26.608Z,102.03
2022-12-17T09:51:48.460Z,104.00
2022-12-17T09:53:19.838Z,97.53
2022-12-17T09:54:42.723Z,99.28
2022-12-17T09:56:04.310Z,116.57
2022-12-17T09:57:28.356Z,104.80
2022-12-17T09:58:49.139Z,112.57
2022-12-17T10:00:14.817Z,106.68
2022-12-17T10:01:36.357Z,104.35
2022-12-17T10:02:57.031Z,102.13
2022-12-17T10:04:20.682Z,106.57
2022-12-17T10:05:41.424Z,100.45
2022-12-17T10:07:03.492Z,114.35
2022-12-17T10:08:24.181Z,112.00
2022-12-17T10:09:44.630Z,104.57
2022-12-17T10:11:15.021Z,109.03
2022-12-17T10:12:35.352Z,106.55
2022-12-17T10:13:56.069Z,123.90
2022-12-17T10:15:16.853Z,107.32
2022-12-17T10:16:41.418Z,113.57
2022-12-17T10:18:06.376Z,124.13
2022-12-17T10:19:33.019Z,116.15
2022-12-17T10:20:58.106Z,114.20
2022-12-17T10:22:20.440Z,102.25
2022-12-17T10:23:41.067Z,110.93
2022-12-17T10:25:02.908Z,106.68
2022-12-17T10:26:25.825Z,110.32
2022-12-17T10:27:46.516Z,120.82
2022-12-17T10:29:11.349Z,118.45
2022-12-17T10:30:32.626Z,110.30
2022-12-17T10:31:53.755Z,99.38
2022-12-17T10:33:17.763Z,99.57
2022-12-17T10:34:38.233Z,102.93
2022-12-17T10:35:58.776Z,101.57
2022-12-17T10:37:21.364Z,104.32
2022-12-17T10:38:41.834Z,102.78
2022-12-17T10:40:03.562Z,100.05
2022-12-17T10:41:25.585Z,89.03
2022-12-17T10:42:46.621Z,94.45
2022-12-17T10:44:21.410Z,100.85
2022-12-17T10:45:53.090Z,104.65
2022-12-17T10:47:15.159Z,94.47
2022-12-17T10:48:35.844Z,100.32
2022-12-17T10:50:00.710Z,108.10
2022-12-17T10:51:25.265Z,106.45
2022-12-17T10:52:47.963Z,97.75
2022-12-17T10:54:15.744Z,81.90
2022-12-17T10:55:36.634Z,79.78
2022-12-17T10:56:58.879Z,77.40
2022-12-17T10:58:21.094Z,81.60
2022-12-17T10:59:41.659Z,86.60
2022-12-17T11:01:02.570Z,77.63
2022-12-17T11:02:26.856Z,80.93
2022-12-17T11:03:52.287Z,82.28
2022-12-17T11:05:14.627Z,78.80
2022-12-17T11:06:42.025Z,81.43
2022-12-17T11:08:05.004Z,81.93
2022-12-17T11:09:41.210Z,80.97
2022-12-17T11:11:04.375Z,77.53
2022-12-17T11:12:30.756Z,88.40
2022-12-17T11:13:52.730Z,81.70
2022-12-17T11:15:19.392Z,78.10
2022-12-17T11:16:42.522Z,78.63
2022-12-17T11:18:10.908Z,77.47
2022-12-17T11:19:37.438Z,90.63
2022-12-17T11:21:00.742Z,83.32
2022-12-17T11:22:31.543Z,78.07
2022-12-17T11:23:55.298Z,81.65
2022-12-17T11:25:26.863Z,76.10
2022-12-17T11:26:51.347Z,80.53
2022-12-17T11:28:16.981Z,81.13
2022-12-17T11:29:37.262Z,82.32
2022-12-17T11:31:02.726Z,81.32
2022-12-17T11:32:49.621Z,80.82
2022-12-17T11:34:17.611Z,77.45
2022-12-17T11:35:45.132Z,92.88
2022-12-17T11:37:13.927Z,82.32
2022-12-17T11:38:38.434Z,87.57
2022-12-17T11:40:03.857Z,90.10
2022-12-17T11:41:31.081Z,98.18
2022-12-17T11:42:56.662Z,96.80
2022-12-17T11:44:27.145Z,90.22
2022-12-17T11:45:57.017Z,95.43
2022-12-17T11:47:27.089Z,88.80
2022-12-17T11:48:52.943Z,101.68
2022-12-17T11:50:20.896Z,94.47
2022-12-17T11:51:45.976Z,79.85
2022-12-17T11:53:14.263Z,92.20
2022-12-17T11:54:39.323Z,87.07
2022-12-17T11:56:06.191Z,91.28
2022-12-17T11:57:32.376Z,95.22
2022-12-17T11:59:00.247Z,90.13
2022-12-17T12:00:22.836Z,83.80
2022-12-17T12:01:46.262Z,90.32
2022-12-17T12:03:17.522Z,89.30
2022-12-17T12:04:52.262Z,84.17
2022-12-17T12:06:17.660Z,89.20
2022-12-17T12:07:42.830Z,82.40
2022-12-17T12:09:08.722Z,82.55
2022-12-17T12:10:34.053Z,84.43
2022-12-17T12:12:01.396Z,83.18
2022-12-17T12:13:27.346Z,89.88
2022-12-17T12:14:53.985Z,87.47
2022-12-17T12:16:19.313Z,81.60
2022-12-17T12:17:45.840Z,84.82
2022-12-17T12:19:13.418Z,85.75
2022-12-17T12:20:46.855Z,78.97
2022-12-17T12:22:13.748Z,83.30
2022-12-17T12:23:41.982Z,83.38
2022-12-17T12:25:19.937Z,79.95
2022-12-17T12:26:48.385Z,82.32
2022-12-17T12:28:19.901Z,82.50
2022-12-17T12:29:45.598Z,73.05
2022-12-17T12:31:13.481Z,85.13
2022-12-17T12:32:42.124Z,79.70
2022-12-17T12:34:06.202Z,70.80
2022-12-17T12:35:27.567Z,76.60
2022-12-17T12:36:49.255Z,69.70
2022-12-17T12:38:16.228Z,72.72
2022-12-17T12:39:40.144Z,68.63
2022-12-17T12:41:06.636Z,72.97
2022-12-17T12:42:33.086Z,74.45
2022-12-17T12:44:00.107Z,76.03
2022-12-17T12:45:33.538Z,73.95
2022-12-17T12:46:58.880Z,66.18
2022-12-17T12:48:27.788Z,73.85
2022-12-17T12:49:54.365Z,68.32
2022-12-17T12:51:18.823Z,72.50
2022-12-17T12:52:39.564Z,65.90
2022-12-17T12:54:01.130Z,67.82
2022-12-17T12:55:21.743Z,79.43
2022-12-17T12:56:42.389Z,69.60
2022-12-17T12:58:03.945Z,81.22
2022-12-17T12:59:27.891Z,75.60
2022-12-17T13:00:53.362Z,74.70
2022-12-17T13:02:28.334Z,72.03
2022-12-17T13:03:53.636Z,84.00
2022-12-17T13:05:23.890Z,72.10
2022-12-17T13:06:47.073Z,73.95
2022-12-17T13:08:21.430Z,74.22
2022-12-17T13:09:48.514Z,75.53
2022-12-17T13:11:27.884Z,69.53
2022-12-17T13:12:48.368Z,74.53
2022-12-17T13:14:15.205Z,75.47
2022-12-17T13:15:41.274Z,74.65
2022-12-17T13:17:05.122Z,79.50
2022-12-17T13:18:29.744Z,75.05
2022-12-17T13:20:01.111Z,73.97
2022-12-17T13:21:26.447Z,80.85
2022-12-17T13:22:50.639Z,77.15
2022-12-17T13:24:12.191Z,84.38
2022-12-17T13:25:32.626Z,83.95
2022-12-17T13:26:53.714Z,74.72
2022-12-17T13:28:27.840Z,76.70
2022-12-17T13:29:48.536Z,65.80
2022-12-17T13:31:17.163Z,77.20
2022-12-17T13:32:42.444Z,69.60
2022-12-17T13:34:08.644Z,72.22
2022-12-17T13:35:36.439Z,76.15
2022-12-17T13:37:01.329Z,78.65
2022-12-17T13:38:27.140Z,74.03
2022-12-17T13:39:52.239Z,76.10
2022-12-17T13:41:14.083Z,70.60
2022-12-17T13:42:35.952Z,70.13
2022-12-17T13:43:57.621Z,72.50
2022-12-17T13:46:47.378Z,76.45
2022-12-17T13:48:20.422Z,75.47
2022-12-17T13:49:41.074Z,68.03
2022-12-17T13:51:04.558Z,77.35
2022-12-17T13:52:26.088Z,71.10
2022-12-17T13:53:52.576Z,72.65
2022-12-17T13:55:20.240Z,75.43
2022-12-17T13:56:40.840Z,75.43
2022-12-17T13:58:01.446Z,72.75
2022-12-17T13:59:23.401Z,68.65
2022-12-17T14:00:44.261Z,68.82
2022-12-17T14:02:06.764Z,66.20
2022-12-17T14:04:03.767Z,76.00
2022-12-17T14:05:25.655Z,87.68
2022-12-17T14:06:46.464Z,75.53
2022-12-17T14:08:07.355Z,75.35
2022-12-17T14:09:33.446Z,82.07
2022-12-17T14:10:55.827Z,79.57
2022-12-17T14:12:17.396Z,87.38
2022-12-17T14:13:37.744Z,80.57
2022-12-17T14:15:01.522Z,80.38
2022-12-17T14:16:22.639Z,91.95
2022-12-17T14:17:47.185Z,87.50
2022-12-17T14:19:09.759Z,86.03
2022-12-17T14:20:31.573Z,90.35
2022-12-17T14:23:15.536Z,89.57
2022-12-17T14:24:36.530Z,84.78
2022-12-17T14:25:57.819Z,85.07
2022-12-17T14:27:23.744Z,83.72
2022-12-17T14:28:50.247Z,87.40
2022-12-17T14:30:22.431Z,85.97
2022-12-17T14:31:52.275Z,89.65
2022-12-17T14:33:27.702Z,95.10
2022-12-17T14:34:48.140Z,92.30
2022-12-17T14:36:17.193Z,92.40
2022-12-17T14:37:37.945Z,95.57
2022-12-17T14:39:00.211Z,93.35
2022-12-17T14:40:21.314Z,95.60
2022-12-17T14:41:42.261Z,100.35
2022-12-17T14:43:03.930Z,97.72
2022-12-17T14:44:28.578Z,109.03
2022-12-17T14:45:50.131Z,106.93
2022-12-17T14:47:17.738Z,101.18
2022-12-17T14:48:40.165Z,105.78
2022-12-17T14:50:04.310Z,106.00
2022-12-17T14:51:33.200Z,99.85
2022-12-17T14:52:55.437Z,110.30
2022-12-17T14:54:20.715Z,114.10
2022-12-17T14:55:55.555Z,111.05
2022-12-17T14:57:21.023Z,111.00
2022-12-17T14:58:45.640Z,107.60
2022-12-17T15:00:09.025Z,111.93
2022-12-17T15:01:29.638Z,115.20
2022-12-17T15:02:52.191Z,106.03
2022-12-17T15:04:15.494Z,113.60
2022-12-17T15:05:36.708Z,121.25
2022-12-17T15:06:57.511Z,116.78
2022-12-17T15:08:18.058Z,108.23
2022-12-17T15:09:38.412Z,114.18
2022-12-17T15:10:59.122Z,115.55
2022-12-17T15:12:20.434Z,119.00
2022-12-17T15:13:41.520Z,120.25
2022-12-17T15:15:02.220Z,112.03
2022-12-17T15:16:23.292Z,116.85
2022-12-17T15:17:44.289Z,120.53
2022-12-17T15:19:05.208Z,123.28
2022-12-17T15:20:27.440Z,131.80
2022-12-17T15:21:48.367Z,125.25
2022-12-17T15:23:14.095Z,127.82
2022-12-17T15:24:34.702Z,128.70
2022-12-17T15:25:55.543Z,119.97
2022-12-17T15:27:17.133Z,125.45
2022-12-17T15:28:38.429Z,119.10
2022-12-17T15:29:59.052Z,128.98
2022-12-17T15:31:24.670Z,120.60
2022-12-17T15:32:46.797Z,127.40
2022-12-17T15:34:07.247Z,125.70
2022-12-17T15:35:29.338Z,130.85
2022-12-17T15:36:50.273Z,138.77
2022-12-17T15:38:12.228Z,134.90
2022-12-17T15:39:32.815Z,134.57
2022-12-17T15:40:53.849Z,125.93
2022-12-17T15:42:14.377Z,140.00
2022-12-17T15:43:34.948Z,135.95
2022-12-17T15:44:55.831Z,136.13
2022-12-17T15:46:18.712Z,134.02
2022-12-17T15:47:39.382Z,137.98
2022-12-17T15:49:00.146Z,136.00
2022-12-17T15:50:21.028Z,144.40
2022-12-17T15:51:42.650Z,144.93
2022-12-17T15:53:03.525Z,140.90
2022-12-17T15:54:24.010Z,143.53
2022-12-17T15:55:44.773Z,146.63
2022-12-17T15:57:05.424Z,146.57
2022-12-17T15:58:26.470Z,159.10
2022-12-17T15:59:46.869Z,154.85
2022-12-17T16:01:07.703Z,161.32
2022-12-17T16:02:28.348Z,150.70
2022-12-17T16:03:52.782Z,160.43
2022-12-17T16:05:13.818Z,160.07
2022-12-17T16:06:34.464Z,166.18
2022-12-17T16:07:56.737Z,162.43
2022-12-17T16:09:17.327Z,159.98
2022-12-17T16:10:38.157Z,165.45
2022-12-17T16:11:58.508Z,165.93
2022-12-17T16:13:20.145Z,161.63
2022-12-17T16:14:40.730Z,162.35
2022-12-17T16:16:04.081Z,170.83
2022-12-17T16:17:24.965Z,167.40
2022-12-17T16:18:45.688Z,173.38
2022-12-17T16:20:07.549Z,186.18
2022-12-17T16:21:28.508Z,170.57
2022-12-17T16:22:49.236Z,165.13
2022-12-17T16:24:11.597Z,166.27
2022-12-17T16:25:32.397Z,171.75
2022-12-17T16:26:53.158Z,160.85
2022-12-17T16:28:13.806Z,170.73
2022-12-17T16:29:34.452Z,173.90
2022-12-17T16:30:59.097Z,187.45
2022-12-17T16:32:20.244Z,179.40
2022-12-17T16:33:41.859Z,178.35
2022-12-17T16:35:02.501Z,175.60
2022-12-17T16:36:23.284Z,186.70
2022-12-17T16:37:44.070Z,200.25
2022-12-17T16:39:05.393Z,185.98
2022-12-17T16:41:47.735Z,175.95
2022-12-17T16:43:08.520Z,200.15
2022-12-17T16:44:28.936Z,184.68
2022-12-17T16:45:51.477Z,182.02
2022-12-17T16:47:12.285Z,187.93
2022-12-17T16:48:37.421Z,190.73
2022-12-17T16:49:58.612Z,180.45
2022-12-17T16:51:28.464Z,198.13
2022-12-17T16:52:49.832Z,184.38
2022-12-17T16:54:13.482Z,194.55
2022-12-17T16:55:40.272Z,201.65
2022-12-17T16:57:01.070Z,187.75
2022-12-17T16:58:22.310Z,193.82
2022-12-17T16:59:42.873Z,209.02
2022-12-17T17:01:04.035Z,205.55
2022-12-17T17:02:24.854Z,190.98
2022-12-17T17:03:45.197Z,205.60
2022-12-17T17:05:06.947Z,200.85
2022-12-17T17:06:31.850Z,196.13
2022-12-17T17:07:54.127Z,209.82
2022-12-17T17:09:16.288Z,215.20
2022-12-17T17:10:38.103Z,208.88
2022-12-17T17:11:58.864Z,213.00
2022-12-17T17:13:19.432Z,210.50
2022-12-17T17:14:39.877Z,213.82
2022-12-17T17:16:00.199Z,207.48
2022-12-17T17:17:20.581Z,201.13
2022-12-17T17:19:00.958Z,214.38
2022-12-17T17:20:21.491Z,205.80
2022-12-17T17:21:48.626Z,204.07
2022-12-17T17:23:09.044Z,207.15
2022-12-17T17:24:29.685Z,220.13
2022-12-17T17:25:58.401Z,208.82
2022-12-17T17:27:19.244Z,209.75
2022-12-17T17:28:40.343Z,213.90
2022-12-17T17:30:03.607Z,196.65
2022-12-17T17:31:46.438Z,203.65
2022-12-17T17:33:05.933Z,221.23
2022-12-17T17:34:26.599Z,218.68
2022-12-17T17:35:47.311Z,215.65
2022-12-17T17:37:08.161Z,235.07
2022-12-17T17:38:29.036Z,217.43
2022-12-17T17:39:49.774Z,230.00
2022-12-17T17:41:13.740Z,232.48